createdAt,value
2023-04-06T00:01:59.606Z,101287.88
2023-04-06T00:04:26.479Z,101283.38
2023-04-06T00:06:53.380Z,101284.81
2023-04-06T00:09:20.139Z,101274.50
2023-04-06T00:11:47.027Z,101272.56
2023-04-06T00:14:13.877Z,101274.22
2023-04-06T00:16:43.333Z,101269.78
2023-04-06T00:19:10.298Z,101263.91
2023-04-06T00:21:37.249Z,101266.69
2023-04-06T00:24:05.260Z,101254.16
2023-04-06T00:26:32.074Z,101260.28
2023-04-06T00:29:00.149Z,101258.31
2023-04-06T00:31:27.113Z,101254.44
2023-04-06T00:33:53.907Z,101240.75
2023-04-06T00:36:20.905Z,101245.78
2023-04-06T00:38:47.738Z,101247.47
2023-04-06T00:41:14.882Z,101249.41
2023-04-06T00:43:43.102Z,101243.84
2023-04-06T00:46:10.032Z,101230.44
2023-04-06T00:48:37.016Z,101233.53
2023-04-06T00:51:03.935Z,101230.16
2023-04-06T00:53:30.752Z,101227.38
2023-04-06T00:55:57.629Z,101228.22
2023-04-06T00:58:24.993Z,101222.66
2023-04-06T01:00:51.832Z,101210.41
2023-04-06T01:03:18.614Z,101207.31
2023-04-06T01:05:45.692Z,101208.44
2023-04-06T01:08:15.931Z,101208.72
2023-04-06T01:10:42.803Z,101198.97
2023-04-06T01:13:09.790Z,101198.69
2023-04-06T01:15:36.729Z,101192.25
2023-04-06T01:18:03.702Z,101193.41
2023-04-06T01:20:31.756Z,101189.47
2023-04-06T01:22:58.586Z,101180.56
2023-04-06T01:25:25.386Z,101176.34
2023-04-06T01:27:52.167Z,101172.47
2023-04-06T01:30:19.261Z,101177.78
2023-04-06T01:32:46.326Z,101176.94
2023-04-06T01:35:13.115Z,101170.53
2023-04-06T01:37:39.873Z,101163.84
2023-04-06T01:40:07.295Z,101161.06
2023-04-06T01:42:34.095Z,101156.03
2023-04-06T01:45:01.130Z,101145.72
2023-04-06T01:47:28.017Z,101141.56
2023-04-06T01:49:54.868Z,101142.06
2023-04-06T01:52:22.271Z,101146.28
2023-04-06T01:54:49.107Z,101142.38
2023-04-06T01:57:15.860Z,101134.56
2023-04-06T01:59:42.865Z,101130.94
2023-04-06T02:02:09.739Z,101127.03
2023-04-06T02:04:38.887Z,101126.78
2023-04-06T02:07:05.808Z,101123.16
2023-04-06T02:09:32.716Z,101120.38
2023-04-06T02:11:59.497Z,101115.06
2023-04-06T02:14:27.150Z,101119.25
2023-04-06T02:16:54.094Z,101118.69
2023-04-06T02:19:20.958Z,101109.22
2023-04-06T02:21:47.726Z,101112.00
2023-04-06T02:24:14.544Z,101099.72
2023-04-06T02:26:41.495Z,101105.84
2023-04-06T02:29:08.852Z,101108.94
2023-04-06T02:31:35.965Z,101097.50
2023-04-06T02:34:02.792Z,101100.28
2023-04-06T02:36:29.664Z,101096.38
2023-04-06T02:38:56.644Z,101088.31
2023-04-06T02:41:23.429Z,101088.59
2023-04-06T02:43:50.194Z,101084.13
2023-04-06T02:46:17.111Z,101077.44
2023-04-06T02:48:43.933Z,101072.97
2023-04-06T02:51:10.718Z,101078.28
2023-04-06T02:53:37.634Z,101075.50
2023-04-06T02:56:04.471Z,101071.88
2023-04-06T02:58:31.342Z,101062.41
2023-04-06T03:00:58.180Z,101067.13
2023-04-06T03:03:25.078Z,101060.47
2023-04-06T03:05:52.031Z,101057.94
2023-04-06T03:08:18.790Z,101057.09
2023-04-06T03:10:45.724Z,101048.47
2023-04-06T03:13:12.510Z,101050.13
2023-04-06T03:15:39.343Z,101052.63
2023-04-06T03:18:06.549Z,101043.75
2023-04-06T03:20:33.446Z,101040.94
2023-04-06T03:23:00.371Z,101049.00
2023-04-06T03:25:27.225Z,101045.09
2023-04-06T03:27:54.063Z,101040.38
2023-04-06T03:30:20.938Z,101043.44
2023-04-06T03:32:47.733Z,101047.06
2023-04-06T03:35:14.639Z,101045.69
2023-04-06T03:37:41.456Z,101035.38
2023-04-06T03:40:08.478Z,101039.28
2023-04-06T03:42:35.240Z,101018.09
2023-04-06T03:45:02.089Z,101022.00
2023-04-06T03:47:28.880Z,101022.81
2023-04-06T03:49:56.890Z,101018.66
2023-04-06T03:52:24.421Z,101018.09
2023-04-06T03:54:51.352Z,101024.50
2023-04-06T03:57:18.469Z,101009.47
2023-04-06T03:59:45.356Z,101010.31
2023-04-06T04:02:12.182Z,101007.78
2023-04-06T04:04:39.234Z,101019.50
2023-04-06T04:07:06.225Z,101013.06
2023-04-06T04:09:33.013Z,101013.06
2023-04-06T04:11:59.816Z,101004.41
2023-04-06T04:14:26.944Z,101005.56
2023-04-06T04:16:53.857Z,101004.41
2023-04-06T04:19:20.921Z,100998.59
2023-04-06T04:21:48.142Z,100995.53
2023-04-06T04:24:14.976Z,100991.91
2023-04-06T04:26:42.094Z,100998.31
2023-04-06T04:29:09.133Z,100994.13
2023-04-06T04:31:36.246Z,100984.66
2023-04-06T04:34:03.144Z,100984.38
2023-04-06T04:36:32.790Z,100996.06
2023-04-06T04:39:00.238Z,100987.16
2023-04-06T04:41:26.986Z,100982.69
2023-04-06T04:43:53.787Z,100997.75
2023-04-06T04:46:20.758Z,100985.22
2023-04-06T04:48:47.625Z,100991.63
2023-04-06T04:51:14.470Z,100994.41
2023-04-06T04:53:41.398Z,100991.88
2023-04-06T04:56:08.177Z,100993.56
2023-04-06T04:58:34.920Z,100994.41
2023-04-06T05:01:01.875Z,100988.84
2023-04-06T05:03:28.819Z,100995.53
2023-04-06T05:05:56.104Z,100990.50
2023-04-06T05:08:22.939Z,100982.44
2023-04-06T05:10:50.017Z,100985.22
2023-04-06T05:13:16.929Z,100985.47
2023-04-06T05:15:43.911Z,100977.69
2023-04-06T05:18:13.558Z,100981.28
2023-04-06T05:20:40.703Z,100976.56
2023-04-06T05:23:07.628Z,100973.50
2023-04-06T05:25:34.497Z,100968.50
2023-04-06T05:28:01.552Z,100975.44
2023-04-06T05:30:28.379Z,100960.97
2023-04-06T05:32:55.694Z,100962.94
2023-04-06T05:35:22.643Z,100968.19
2023-04-06T05:37:49.529Z,100969.03
2023-04-06T05:40:16.769Z,100968.19
2023-04-06T05:42:43.954Z,100967.66
2023-04-06T05:45:12.680Z,100960.13
2023-04-06T05:47:39.500Z,100967.66
2023-04-06T05:50:06.858Z,100959.31
2023-04-06T05:52:33.626Z,100957.91
2023-04-06T05:55:00.446Z,100961.53
2023-04-06T05:57:27.457Z,100967.66
2023-04-06T05:59:54.270Z,100962.63
2023-04-06T06:02:21.627Z,100956.50
2023-04-06T06:04:48.678Z,100956.78
2023-04-06T06:07:15.772Z,100961.25
2023-04-06T06:09:42.555Z,100944.81
2023-04-06T06:12:09.355Z,100951.47
2023-04-06T06:14:36.293Z,100956.22
2023-04-06T06:17:03.185Z,100958.19
2023-04-06T06:19:30.193Z,100959.84
2023-04-06T06:21:57.029Z,100969.59
2023-04-06T06:24:24.041Z,100965.72
2023-04-06T06:26:50.915Z,100977.13
2023-04-06T06:29:17.774Z,100971.81
2023-04-06T06:31:44.728Z,100964.88
2023-04-06T06:34:11.746Z,100965.13
2023-04-06T06:36:38.654Z,100966.81
2023-04-06T06:39:05.503Z,100962.94
2023-04-06T06:41:34.719Z,100966.56
2023-04-06T06:44:01.622Z,100962.09
2023-04-06T06:46:28.503Z,100966.56
2023-04-06T06:48:55.392Z,100961.78
2023-04-06T06:51:22.249Z,100961.53
2023-04-06T06:53:49.213Z,100954.84
2023-04-06T06:56:16.244Z,100948.44
2023-04-06T06:58:43.174Z,100951.47
2023-04-06T07:01:10.250Z,100945.91
2023-04-06T07:03:37.245Z,100930.03
2023-04-06T07:06:04.212Z,100936.72
2023-04-06T07:08:31.392Z,100948.69
2023-04-06T07:10:58.356Z,100963.75
2023-04-06T07:13:28.760Z,100959.31
2023-04-06T07:15:55.615Z,100962.34
2023-04-06T07:18:22.695Z,100961.53
2023-04-06T07:20:49.566Z,100955.09
2023-04-06T07:23:16.784Z,100948.16
2023-04-06T07:25:43.626Z,100957.06
2023-04-06T07:28:10.504Z,100956.53
2023-04-06T07:30:38.587Z,100962.34
2023-04-06T07:33:06.919Z,100961.25
2023-04-06T07:35:33.933Z,100963.47
2023-04-06T07:38:01.355Z,100963.47
2023-04-06T07:40:28.228Z,100969.63
2023-04-06T07:42:58.185Z,100975.72
2023-04-06T07:45:25.167Z,100967.09
2023-04-06T07:47:52.249Z,100977.69
2023-04-06T07:50:19.427Z,100981.03
2023-04-06T07:52:46.387Z,100975.72
2023-04-06T07:55:13.370Z,100978.50
2023-04-06T07:57:40.710Z,100983.53
2023-04-06T08:00:08.148Z,100990.50
2023-04-06T08:02:35.288Z,100984.66
2023-04-06T08:05:02.588Z,100994.69
2023-04-06T08:07:29.471Z,100992.16
2023-04-06T08:09:56.635Z,100987.69
2023-04-06T08:12:23.758Z,100990.22
2023-04-06T08:14:50.669Z,100993.59
2023-04-06T08:17:17.834Z,100999.69
2023-04-06T08:19:53.664Z,100992.16
2023-04-06T08:22:20.640Z,100998.59
2023-04-06T08:24:47.537Z,100995.22
2023-04-06T08:27:16.007Z,100994.69
2023-04-06T08:29:43.031Z,100991.91
2023-04-06T08:32:09.892Z,100985.22
2023-04-06T08:34:36.868Z,100983.53
2023-04-06T08:37:04.220Z,100988.28
2023-04-06T08:39:32.602Z,100984.38
2023-04-06T08:42:01.231Z,100983.81
2023-04-06T08:44:28.450Z,100992.44
2023-04-06T08:46:55.912Z,100982.13
2023-04-06T08:49:23.032Z,100991.34
2023-04-06T08:51:50.696Z,100977.41
2023-04-06T08:54:17.843Z,100985.50
2023-04-06T08:56:44.822Z,100985.19
2023-04-06T08:59:12.444Z,100990.78
2023-04-06T09:01:43.026Z,100994.97
2023-04-06T09:04:13.136Z,100991.06
2023-04-06T09:06:42.063Z,100998.03
2023-04-06T09:09:09.309Z,101002.22
2023-04-06T09:11:46.125Z,100996.06
2023-04-06T09:14:13.236Z,100999.97
2023-04-06T09:16:42.818Z,101004.44
2023-04-06T09:19:10.432Z,101006.94
2023-04-06T09:21:40.101Z,100998.88
2023-04-06T09:24:10.600Z,100997.50
2023-04-06T09:26:48.107Z,100996.06
2023-04-06T09:29:25.693Z,100995.53
2023-04-06T09:31:52.754Z,101004.72
2023-04-06T09:34:24.654Z,101000.28
2023-04-06T09:36:53.513Z,100994.41
2023-04-06T09:39:22.592Z,101009.16
2023-04-06T09:41:52.247Z,100993.88
2023-04-06T09:44:19.477Z,100996.66
2023-04-06T09:46:59.674Z,100994.97
2023-04-06T09:49:32.541Z,100993.03
2023-04-06T09:52:03.267Z,101001.09
2023-04-06T09:54:31.157Z,100989.41
2023-04-06T09:57:01.710Z,100997.75
2023-04-06T09:59:29.813Z,101001.09
2023-04-06T10:02:02.724Z,100999.16
2023-04-06T10:04:29.822Z,101003.59
2023-04-06T10:06:57.872Z,101012.25
2023-04-06T10:09:27.210Z,101005.56
2023-04-06T10:11:54.502Z,101006.41
2023-04-06T10:14:21.434Z,101003.59
2023-04-06T10:16:49.995Z,101000.56
2023-04-06T10:19:19.969Z,101009.47
2023-04-06T10:21:50.063Z,101021.44
2023-04-06T10:24:18.723Z,101008.63
2023-04-06T10:26:58.271Z,101009.75
2023-04-06T10:29:25.592Z,101007.78
2023-04-06T10:31:54.248Z,101019.25
2023-04-06T10:34:21.492Z,101016.72
2023-04-06T10:36:48.511Z,101019.50
2023-04-06T10:39:15.479Z,101019.50
2023-04-06T10:41:43.673Z,101017.56
2023-04-06T10:44:18.859Z,101015.03
2023-04-06T10:46:53.902Z,101023.97
2023-04-06T10:49:21.276Z,101022.03
2023-04-06T10:51:52.633Z,101037.63
2023-04-06T10:54:20.474Z,101036.81
2023-04-06T10:56:47.454Z,101034.84
2023-04-06T10:59:14.655Z,101046.56
2023-04-06T11:01:45.792Z,101047.41
2023-04-06T11:04:17.018Z,101046.56
2023-04-06T11:06:49.068Z,101050.19
2023-04-06T11:09:28.729Z,101040.97
2023-04-06T11:11:56.853Z,101032.34
2023-04-06T11:14:24.427Z,101034.56
2023-04-06T11:16:51.666Z,101035.94
2023-04-06T11:19:19.546Z,101039.31
2023-04-06T11:21:49.106Z,101042.34
2023-04-06T11:24:18.867Z,101044.34
2023-04-06T11:26:46.554Z,101036.50
2023-04-06T11:29:14.080Z,101053.25
2023-04-06T11:31:42.505Z,101049.34
2023-04-06T11:34:11.733Z,101040.97
2023-04-06T11:36:41.129Z,101047.66
2023-04-06T11:39:09.818Z,101056.88
2023-04-06T11:41:37.469Z,101052.69
2023-04-06T11:44:04.696Z,101065.50
2023-04-06T11:46:31.686Z,101059.94
2023-04-06T11:49:04.456Z,101051.84
2023-04-06T11:51:31.534Z,101065.81
2023-04-06T11:53:58.613Z,101058.53
2023-04-06T11:56:26.669Z,101064.41
2023-04-06T11:58:54.229Z,101061.59
2023-04-06T12:01:21.468Z,101062.19
2023-04-06T12:03:48.592Z,101063.81
2023-04-06T12:06:16.551Z,101069.97
2023-04-06T12:08:44.008Z,101068.03
2023-04-06T12:11:11.061Z,101062.72
2023-04-06T12:13:38.152Z,101061.03
2023-04-06T12:16:05.230Z,101071.94
2023-04-06T12:18:32.453Z,101070.81
2023-04-06T12:20:59.367Z,101061.34
2023-04-06T12:23:26.300Z,101063.00
2023-04-06T12:25:53.515Z,101057.72
2023-04-06T12:28:22.057Z,101062.16
2023-04-06T12:30:49.174Z,101054.38
2023-04-06T12:33:16.949Z,101058.00
2023-04-06T12:35:43.832Z,101056.31
2023-04-06T12:38:10.736Z,101071.66
2023-04-06T12:40:38.188Z,101067.75
2023-04-06T12:43:05.490Z,101070.00
2023-04-06T12:45:33.017Z,101065.53
2023-04-06T12:48:03.479Z,101056.91
2023-04-06T12:50:30.500Z,101056.34
2023-04-06T12:52:57.570Z,101059.13
2023-04-06T12:55:24.504Z,101049.94
2023-04-06T13:00:52.262Z,101044.06
2023-04-06T13:03:25.695Z,101052.75
2023-04-06T13:05:52.992Z,101059.16
2023-04-06T13:08:20.861Z,101049.38
2023-04-06T13:10:50.581Z,101059.13
2023-04-06T13:13:17.940Z,101048.53
2023-04-06T13:15:46.752Z,101051.31
2023-04-06T13:18:18.440Z,101045.75
2023-04-06T13:20:45.368Z,101051.91
2023-04-06T13:23:12.730Z,101051.91
2023-04-06T13:25:39.744Z,101053.53
2023-04-06T13:28:06.689Z,101048.81
2023-04-06T13:30:36.458Z,101044.06
2023-04-06T13:33:03.898Z,101049.38
2023-04-06T13:35:34.063Z,101048.81
2023-04-06T13:38:06.673Z,101050.22
2023-04-06T13:40:33.551Z,101051.31
2023-04-06T13:43:00.693Z,101063.88
2023-04-06T13:45:27.694Z,101058.59
2023-04-06T13:47:57.071Z,101066.13
2023-04-06T13:50:26.652Z,101067.50
2023-04-06T13:52:53.733Z,101073.66
2023-04-06T13:55:20.980Z,101076.44
2023-04-06T13:57:49.368Z,101084.25
2023-04-06T14:00:16.500Z,101080.06
2023-04-06T14:02:45.990Z,101072.53
2023-04-06T14:05:17.156Z,101081.75
2023-04-06T14:07:46.869Z,101080.91
2023-04-06T14:10:15.697Z,101088.44
2023-04-06T14:12:46.128Z,101095.13
2023-04-06T14:15:13.852Z,101083.69
2023-04-06T14:17:41.059Z,101072.00
2023-04-06T14:20:09.110Z,101070.28
2023-04-06T14:22:42.798Z,101078.66
2023-04-06T14:25:14.002Z,101080.34
2023-04-06T14:27:41.540Z,101081.44
2023-04-06T14:30:09.592Z,101080.88
2023-04-06T14:32:37.832Z,101097.59
2023-04-06T14:35:08.019Z,101099.53
2023-04-06T14:37:35.757Z,101099.53
2023-04-06T14:40:03.901Z,101110.69
2023-04-06T14:42:33.670Z,101116.84
2023-04-06T14:45:02.876Z,101135.53
2023-04-06T14:47:30.039Z,101137.75
2023-04-06T14:49:57.410Z,101158.69
2023-04-06T14:52:24.360Z,101173.75
2023-04-06T14:54:51.298Z,101169.00
2023-04-06T14:57:18.253Z,101160.09
2023-04-06T14:59:45.116Z,101152.56
2023-04-06T15:02:12.613Z,101150.38
2023-04-06T15:04:41.167Z,101147.84
2023-04-06T15:07:08.672Z,101138.91
2023-04-06T15:09:48.208Z,101132.53
2023-04-06T15:12:15.230Z,101133.63
2023-04-06T15:14:43.850Z,101136.69
2023-04-06T15:17:12.961Z,101145.31
2023-04-06T15:19:39.900Z,101144.78
2023-04-06T15:22:06.793Z,101149.53
2023-04-06T15:24:34.897Z,101146.16
2023-04-06T15:27:02.736Z,101152.00
2023-04-06T15:29:33.348Z,101154.25
2023-04-06T15:32:00.505Z,101157.31
2023-04-06T15:34:34.748Z,101155.09
2023-04-06T15:37:03.404Z,101148.94
2023-04-06T15:39:31.044Z,101150.91
2023-04-06T15:41:58.713Z,101157.31
2023-04-06T15:44:33.968Z,101152.28
2023-04-06T15:47:02.317Z,101158.47
2023-04-06T15:49:34.297Z,101154.53
2023-04-06T15:52:08.704Z,101159.53
2023-04-06T15:54:36.947Z,101166.22
2023-04-06T15:57:06.644Z,101161.25
2023-04-06T15:59:33.616Z,101169.00
2023-04-06T16:02:10.004Z,101172.06
2023-04-06T16:04:37.736Z,101169.63
2023-04-06T16:07:05.289Z,101162.63
2023-04-06T16:09:32.327Z,101166.25
2023-04-06T16:11:59.460Z,101161.25
2023-04-06T16:14:26.843Z,101165.94
2023-04-06T16:17:05.020Z,101168.47
2023-04-06T16:19:32.180Z,101167.63
2023-04-06T16:22:03.338Z,101161.78
2023-04-06T16:24:30.234Z,101174.06
2023-04-06T16:27:04.504Z,101176.28
2023-04-06T16:29:32.712Z,101179.38
2023-04-06T16:31:59.809Z,101186.34
2023-04-06T16:34:32.723Z,101183.25
2023-04-06T16:37:00.023Z,101202.78
2023-04-06T16:39:27.161Z,101206.69
2023-04-06T16:41:55.005Z,101210.84
2023-04-06T16:44:22.227Z,101215.31
2023-04-06T16:46:52.518Z,101220.91
2023-04-06T16:49:21.820Z,101248.53
2023-04-06T16:51:50.374Z,101239.56
2023-04-06T16:54:19.064Z,101238.16
2023-04-06T16:56:46.107Z,101240.94
2023-04-06T16:59:16.227Z,101251.00
2023-04-06T17:01:45.313Z,101257.41
2023-04-06T17:04:13.533Z,101262.44
2023-04-06T17:06:40.860Z,101253.25
2023-04-06T17:09:08.426Z,101248.22
2023-04-06T17:11:45.930Z,101246.53
2023-04-06T17:14:14.243Z,101237.34
2023-04-06T17:16:41.690Z,101240.41
2023-04-06T17:19:09.626Z,101244.28
2023-04-06T17:21:36.732Z,101248.19
2023-04-06T17:24:03.792Z,101247.09
2023-04-06T17:26:33.895Z,101253.25
2023-04-06T17:29:00.991Z,101264.41
2023-04-06T17:31:28.798Z,101261.03
2023-04-06T17:34:04.791Z,101276.41
2023-04-06T17:36:36.224Z,101263.81
2023-04-06T17:39:06.076Z,101275.56
2023-04-06T17:41:34.892Z,101281.69
2023-04-06T17:44:01.901Z,101288.66
2023-04-06T17:46:28.932Z,101297.28
2023-04-06T17:48:56.018Z,101305.09
2023-04-06T17:51:28.429Z,101298.72
2023-04-06T17:53:57.807Z,101304.53
2023-04-06T17:56:24.747Z,101307.06
2023-04-06T17:58:55.491Z,101307.88
2023-04-06T18:01:23.104Z,101316.53
2023-04-06T18:03:50.752Z,101310.38
2023-04-06T18:06:18.131Z,101313.19
2023-04-06T18:08:45.515Z,101313.19
2023-04-06T18:11:22.401Z,101315.97
2023-04-06T18:13:49.617Z,101313.47
2023-04-06T18:16:17.920Z,101322.38
2023-04-06T18:18:45.131Z,101314.59
2023-04-06T18:21:12.692Z,101323.22
2023-04-06T18:23:40.331Z,101326.28
2023-04-06T18:26:10.778Z,101332.69
2023-04-06T18:28:47.116Z,101337.44
2023-04-06T18:31:16.987Z,101345.81
2023-04-06T18:33:45.004Z,101346.09
2023-04-06T18:36:11.991Z,101340.78
2023-04-06T18:38:42.437Z,101351.34
2023-04-06T18:41:09.518Z,101360.28
2023-04-06T18:43:38.730Z,101359.47
2023-04-06T18:46:16.079Z,101361.69
2023-04-06T18:48:43.620Z,101370.59
2023-04-06T18:51:10.939Z,101366.13
2023-04-06T18:53:39.886Z,101375.34
2023-04-06T18:56:16.755Z,101368.38
2023-04-06T18:58:48.672Z,101374.50
2023-04-06T19:01:28.163Z,101374.78
2023-04-06T19:03:56.124Z,101384.28
2023-04-06T19:06:23.557Z,101389.56
2023-04-06T19:08:50.919Z,101389.56
2023-04-06T19:11:17.855Z,101395.16
2023-04-06T19:13:50.445Z,101396.25
2023-04-06T19:16:18.038Z,101406.03
2023-04-06T19:18:45.850Z,101404.34
2023-04-06T19:21:24.289Z,101401.53
2023-04-06T19:23:52.631Z,101409.09
2023-04-06T19:26:20.509Z,101411.88
2023-04-06T19:28:47.873Z,101417.47
2023-04-06T19:31:16.566Z,101413.00
2023-04-06T19:33:44.244Z,101420.50
2023-04-06T19:36:11.322Z,101422.72
2023-04-06T19:38:38.641Z,101428.28
2023-04-06T19:41:05.982Z,101436.41
2023-04-06T19:43:32.895Z,101437.25
2023-04-06T19:45:59.860Z,101440.28
2023-04-06T19:48:26.726Z,101443.09
2023-04-06T19:50:54.892Z,101443.94
2023-04-06T19:53:22.903Z,101445.31
2023-04-06T19:55:49.977Z,101449.50
2023-04-06T19:58:17.086Z,101458.97
2023-04-06T20:00:43.988Z,101463.44
2023-04-06T20:03:10.973Z,101458.97
2023-04-06T20:05:38.286Z,101469.28
2023-04-06T20:08:05.224Z,101473.47
2023-04-06T20:10:32.069Z,101468.72
2023-04-06T20:13:01.590Z,101465.94
2023-04-06T20:15:28.505Z,101471.50
2023-04-06T20:17:55.889Z,101473.75
2023-04-06T20:20:22.770Z,101479.63
2023-04-06T20:22:50.451Z,101474.03
2023-04-06T20:25:17.757Z,101484.63
2023-04-06T20:27:45.742Z,101476.84
2023-04-06T20:30:15.293Z,101491.03
2023-04-06T20:32:42.728Z,101495.22
2023-04-06T20:35:09.827Z,101491.59
2023-04-06T20:37:38.181Z,101501.94
2023-04-06T20:40:05.429Z,101504.69
2023-04-06T20:42:32.282Z,101500.50
2023-04-06T20:44:59.804Z,101506.34
2023-04-06T20:47:27.484Z,101498.56
2023-04-06T20:50:00.311Z,101513.88
2023-04-06T20:52:28.047Z,101505.22
2023-04-06T20:54:55.119Z,101513.88
2023-04-06T20:57:22.652Z,101515.53
2023-04-06T20:59:49.492Z,101518.63
2023-04-06T21:02:16.646Z,101512.75
2023-04-06T21:04:44.016Z,101516.38
2023-04-06T21:07:11.129Z,101520.28
2023-04-06T21:09:39.215Z,101521.13
2023-04-06T21:12:06.782Z,101521.97
2023-04-06T21:14:33.917Z,101522.25
2023-04-06T21:17:01.158Z,101525.28
2023-04-06T21:19:28.180Z,101528.09
2023-04-06T21:21:55.166Z,101531.13
2023-04-06T21:24:22.261Z,101536.41
2023-04-06T21:26:49.393Z,101531.13
2023-04-06T21:29:16.257Z,101540.59
2023-04-06T21:31:43.358Z,101539.78
2023-04-06T21:34:12.022Z,101545.06
2023-04-06T21:36:39.290Z,101539.50
2023-04-06T21:39:06.374Z,101544.22
2023-04-06T21:41:33.566Z,101545.34
2023-04-06T21:44:00.819Z,101543.66
2023-04-06T21:46:27.657Z,101544.78
2023-04-06T21:48:54.553Z,101546.47
2023-04-06T21:51:22.627Z,101535.81
2023-04-06T21:53:49.673Z,101547.56
2023-04-06T21:56:26.290Z,101544.19
2023-04-06T21:58:53.404Z,101540.03
2023-04-06T22:01:21.163Z,101542.22
2023-04-06T22:03:48.274Z,101547.56
2023-04-06T22:06:15.258Z,101543.91
2023-04-06T22:08:43.010Z,101546.97
2023-04-06T22:11:10.368Z,101549.75
2023-04-06T22:13:37.324Z,101548.66
2023-04-06T22:16:04.562Z,101554.22
2023-04-06T22:18:31.804Z,101553.69
2023-04-06T22:20:58.821Z,101553.97
2023-04-06T22:23:25.849Z,101552.28
2023-04-06T22:25:53.092Z,101561.19
2023-04-06T22:28:20.090Z,101558.13
2023-04-06T22:30:47.124Z,101563.13
2023-04-06T22:33:14.043Z,101559.25
2023-04-06T22:35:41.180Z,101562.28
2023-04-06T22:38:08.157Z,101565.66
2023-04-06T22:40:37.505Z,101566.78
2023-04-06T22:43:04.487Z,101565.34
2023-04-06T22:45:31.324Z,101556.41
2023-04-06T22:47:58.755Z,101563.13
2023-04-06T22:50:26.259Z,101556.13
2023-04-06T22:52:53.132Z,101559.75
2023-04-06T22:55:20.017Z,101560.88
2023-04-06T22:57:46.813Z,101563.69
2023-04-06T23:00:13.884Z,101559.19
2023-04-06T23:02:40.801Z,101562.81
2023-04-06T23:05:07.876Z,101554.97
2023-04-06T23:07:35.823Z,101556.34
2023-04-06T23:10:03.415Z,101554.41
2023-04-06T23:12:30.349Z,101555.81
2023-04-06T23:14:57.123Z,101557.50
2023-04-06T23:17:24.164Z,101555.56
2023-04-06T23:19:51.702Z,101558.03
2023-04-06T23:22:18.532Z,101558.59
2023-04-06T23:24:45.274Z,101558.03
2023-04-06T23:27:12.038Z,101566.97
2023-04-06T23:29:38.828Z,101561.41
2023-04-06T23:32:05.804Z,101565.88
2023-04-06T23:34:32.783Z,101571.13
2023-04-06T23:37:03.242Z,101571.66
2023-04-06T23:39:30.285Z,101568.59
2023-04-06T23:41:58.157Z,101577.56
2023-04-06T23:44:25.232Z,101575.88
2023-04-06T23:46:52.354Z,101570.56
2023-04-06T23:49:19.164Z,101574.72
2023-04-06T23:51:46.176Z,101576.66
2023-04-06T23:54:13.044Z,101580.84
2023-04-06T23:56:39.927Z,101574.72
2023-04-06T23:59:06.631Z,101578.59
